Time;durP1;ratioP1;P1;durP2;ratioP2;P2;SDS_P1;SDS_P2;PMS_P1;PMS_P2;Temp;Humidity;BMP_temperature;BMP_pressure;BME280_temperature;BME280_humidity;BME280_pressure;Samples;Min_cycle;Max_cycle;Signal;HPM_P1;HPM_P2
2023/01/21 00:00:24;;;;;;;9.90;6.53;;;1.40;99.90;;;;;;5071184;28;20182;-72
2023/01/21 00:02:49;;;;;;;8.33;6.33;;;1.20;99.90;;;;;;5070607;28;20250;-72
2023/01/21 00:05:17;;;;;;;8.23;5.63;;;1.20;99.90;;;;;;5054326;28;20266;-73
2023/01/21 00:07:43;;;;;;;9.13;6.57;;;1.10;99.90;;;;;;5071142;28;20181;-73
2023/01/21 00:10:09;;;;;;;9.23;6.23;;;1.10;99.90;;;;;;5070996;28;20238;-73
2023/01/21 00:12:36;;;;;;;9.13;6.63;;;1.10;99.90;;;;;;5070828;28;20223;-73
2023/01/21 00:15:04;;;;;;;9.17;6.50;;;1.10;99.90;;;;;;5054189;28;20181;-73
2023/01/21 00:17:34;;;;;;;9.80;6.80;;;1.10;99.90;;;;;;5054423;28;20267;-73
2023/01/21 00:20:05;;;;;;;9.77;6.53;;;1.10;99.90;;;;;;5054205;28;20213;-73
2023/01/21 00:22:32;;;;;;;8.47;6.13;;;1.10;99.90;;;;;;5070961;28;20165;-73
2023/01/21 00:24:57;;;;;;;9.30;6.33;;;1.00;99.90;;;;;;5060412;28;20216;-73
2023/01/21 00:27:23;;;;;;;9.57;6.87;;;1.00;99.90;;;;;;5070983;28;20411;-73
2023/01/21 00:29:51;;;;;;;9.23;6.50;;;1.00;99.90;;;;;;5070649;28;20181;-72
2023/01/21 00:32:16;;;;;;;8.57;5.70;;;1.00;99.90;;;;;;5053905;28;20201;-72
2023/01/21 00:34:42;;;;;;;7.80;6.20;;;1.00;99.90;;;;;;5070789;28;20181;-73
2023/01/21 00:37:07;;;;;;;12.43;8.57;;;1.00;99.90;;;;;;5070697;28;20185;-73
2023/01/21 00:39:33;;;;;;;10.30;7.57;;;1.00;99.90;;;;;;5069249;28;20228;-73
2023/01/21 00:42:03;;;;;;;9.47;7.33;;;1.00;99.90;;;;;;5050954;28;20281;-73
2023/01/21 00:44:29;;;;;;;9.43;7.07;;;0.90;99.90;;;;;;5065709;28;20209;-73
2023/01/21 00:46:54;;;;;;;10.67;7.40;;;0.90;99.90;;;;;;5071072;28;20248;-74
2023/01/21 00:49:20;;;;;;;7.77;5.97;;;0.90;99.90;;;;;;5070352;28;20182;-73
2023/01/21 00:51:46;;;;;;;9.13;6.10;;;0.90;99.90;;;;;;5053693;28;20288;-73
2023/01/21 00:54:11;;;;;;;8.13;6.00;;;0.90;99.90;;;;;;5051551;28;20185;-72
2023/01/21 00:56:37;;;;;;;8.03;5.73;;;0.80;99.90;;;;;;5050417;28;20182;-72
2023/01/21 00:59:02;;;;;;;8.33;5.90;;;0.80;99.90;;;;;;5052391;28;20220;-73
2023/01/21 01:01:35;;;;;;;10.43;7.30;;;0.80;99.90;;;;;;5054038;28;20211;-73
2023/01/21 01:04:01;;;;;;;10.80;7.47;;;0.80;99.90;;;;;;5050644;28;20232;-72
2023/01/21 01:06:27;;;;;;;9.50;6.50;;;1.10;99.90;;;;;;5033742;28;20174;-72
2023/01/21 01:08:56;;;;;;;9.53;6.53;;;0.80;99.90;;;;;;5036430;28;20237;-72
2023/01/21 01:11:24;;;;;;;8.20;6.00;;;0.70;99.90;;;;;;5045793;28;20280;-72
2023/01/21 01:13:49;;;;;;;8.13;6.13;;;0.70;99.90;;;;;;5074104;28;20188;-72
2023/01/21 01:16:16;;;;;;;8.43;6.30;;;0.70;99.90;;;;;;5057313;28;20205;-73
2023/01/21 01:18:44;;;;;;;7.97;5.90;;;0.70;99.90;;;;;;5068853;28;20201;-73
2023/01/21 01:21:15;;;;;;;7.20;5.20;;;0.70;99.90;;;;;;5071530;28;20170;-71
2023/01/21 01:23:44;;;;;;;9.20;5.80;;;0.70;99.90;;;;;;5046972;28;20341;-72
2023/01/21 01:26:12;;;;;;;7.87;5.30;;;0.60;99.90;;;;;;5073811;28;20264;-72
2023/01/21 01:28:38;;;;;;;7.80;5.70;;;0.60;99.90;;;;;;5073653;28;20238;-72
2023/01/21 01:31:06;;;;;;;7.23;5.50;;;0.60;99.90;;;;;;5073443;28;20280;-72
2023/01/21 01:33:32;;;;;;;10.20;6.90;;;0.60;99.90;;;;;;5056978;28;20178;-72
2023/01/21 01:36:05;;;;;;;9.83;6.80;;;0.60;99.90;;;;;;5052449;28;20201;-72
2023/01/21 01:38:32;;;;;;;9.03;6.47;;;0.60;99.90;;;;;;5056398;28;20302;-71
2023/01/21 01:40:57;;;;;;;11.00;5.70;;;0.50;99.90;;;;;;5073346;28;20200;-73
2023/01/21 01:43:43;;;;;;;8.60;5.53;;;0.50;99.90;;;;;;5073567;28;20428;-71
2023/01/21 01:46:09;;;;;;;8.57;5.27;;;0.50;99.90;;;;;;5056931;28;20169;-71
2023/01/21 01:48:34;;;;;;;6.97;5.37;;;0.50;99.90;;;;;;5073324;28;20197;-72
2023/01/21 01:51:02;;;;;;;8.50;5.40;;;0.50;99.90;;;;;;5073112;28;20174;-72
2023/01/21 01:53:33;;;;;;;7.13;4.83;;;0.50;99.90;;;;;;5073361;28;20216;-73
2023/01/21 01:56:02;;;;;;;6.93;5.07;;;0.50;99.90;;;;;;5073289;28;20181;-72
2023/01/21 01:58:32;;;;;;;6.97;4.90;;;0.50;99.90;;;;;;5041558;28;20202;-71
2023/01/21 02:00:58;;;;;;;6.80;4.93;;;0.50;99.90;;;;;;5073138;28;20193;-72
2023/01/21 02:03:45;;;;;;;7.37;5.27;;;0.50;99.90;;;;;;5072858;28;20181;-72
2023/01/21 02:06:14;;;;;;;7.20;5.13;;;0.40;99.90;;;;;;5072978;28;20197;-71
2023/01/21 02:08:41;;;;;;;6.60;4.60;;;0.40;99.90;;;;;;5072824;28;20185;-72
2023/01/21 02:11:15;;;;;;;5.70;4.57;;;0.40;99.90;;;;;;5072504;28;20243;-72
2023/01/21 02:13:47;;;;;;;7.63;5.47;;;0.40;99.90;;;;;;5056451;28;20176;-72
2023/01/21 02:16:40;;;;;;;5.80;4.23;;;0.40;99.90;;;;;;5056403;28;20166;-72
2023/01/21 02:19:24;;;;;;;6.73;4.67;;;0.40;99.90;;;;;;5047004;28;20206;-72
2023/01/21 02:22:01;;;;;;;7.03;4.80;;;0.40;99.90;;;;;;5052939;28;20170;-72
2023/01/21 02:24:52;;;;;;;5.07;4.03;;;0.40;99.90;;;;;;5056095;28;20201;-72
2023/01/21 02:27:41;;;;;;;5.67;4.23;;;0.30;99.90;;;;;;5045997;28;20228;-73
2023/01/21 02:30:07;;;;;;;7.33;5.50;;;0.40;99.90;;;;;;5053537;28;20193;-72
2023/01/21 02:32:53;;;;;;;8.50;5.77;;;0.30;99.90;;;;;;5055932;28;20184;-72
2023/01/21 02:35:41;;;;;;;7.97;5.40;;;0.30;99.90;;;;;;5055731;28;20184;-73
2023/01/21 02:38:37;;;;;;;6.43;5.07;;;0.30;99.90;;;;;;5072257;28;20197;-72
2023/01/21 02:41:32;;;;;;;6.03;4.97;;;0.30;99.90;;;;;;5071285;28;20192;-72
2023/01/21 02:44:13;;;;;;;7.20;5.00;;;0.30;99.90;;;;;;5037873;28;20229;-72
2023/01/21 02:46:51;;;;;;;6.97;4.90;;;0.30;99.90;;;;;;5070617;28;20196;-73
2023/01/21 02:49:30;;;;;;;7.40;5.10;;;0.30;99.90;;;;;;5052136;28;20197;-72
2023/01/21 02:51:57;;;;;;;7.33;4.83;;;0.30;99.90;;;;;;5035414;28;20273;-72
2023/01/21 02:54:38;;;;;;;6.53;4.80;;;0.30;99.90;;;;;;5035663;28;20225;-73
2023/01/21 02:57:21;;;;;;;8.00;5.00;;;0.30;99.90;;;;;;5070893;28;20193;-73
2023/01/21 02:59:50;;;;;;;7.20;5.07;;;0.30;99.90;;;;;;5055380;28;20212;-72
2023/01/21 03:02:35;;;;;;;11.00;7.73;;;0.20;99.90;;;;;;5055268;28;20199;-72
2023/01/21 03:05:18;;;;;;;11.67;8.10;;;0.20;99.90;;;;;;5034388;28;20254;-72
2023/01/21 03:07:57;;;;;;;9.70;6.73;;;0.20;99.90;;;;;;5054766;28;20180;-72
2023/01/21 03:10:37;;;;;;;8.60;5.70;;;0.20;99.90;;;;;;5071969;28;20161;-73
2023/01/21 03:13:13;;;;;;;7.17;5.47;;;0.20;99.90;;;;;;5068804;28;20253;-72
2023/01/21 03:18:41;;;;;;;7.83;5.83;;;0.10;99.90;;;;;;5044660;28;20273;-72
2023/01/21 03:21:14;;;;;;;8.20;5.47;;;0.10;99.90;;;;;;5055510;28;20173;-72
2023/01/21 03:23:46;;;;;;;7.33;5.23;;;0.10;99.90;;;;;;5071417;28;20223;-72
2023/01/21 03:26:15;;;;;;;7.40;5.07;;;0.00;99.90;;;;;;5068746;28;20207;-72
2023/01/21 03:28:47;;;;;;;7.60;4.80;;;0.00;99.90;;;;;;5051521;28;20376;-72
2023/01/21 03:31:33;;;;;;;6.43;4.90;;;-0.10;99.90;;;;;;5052212;28;20177;-72
2023/01/21 03:34:03;;;;;;;6.50;4.77;;;-0.10;99.90;;;;;;5060098;28;20241;-72
2023/01/21 03:36:36;;;;;;;6.07;4.33;;;-0.10;99.90;;;;;;5071546;28;20205;-74
2023/01/21 03:39:12;;;;;;;7.10;4.83;;;-0.10;99.90;;;;;;5041893;28;20202;-73
2023/01/21 03:41:39;;;;;;;7.40;4.70;;;-0.10;99.90;;;;;;5066347;28;20207;-72
2023/01/21 03:44:05;;;;;;;6.97;4.40;;;-0.20;99.90;;;;;;5070955;28;20197;-73
2023/01/21 03:46:57;;;;;;;6.90;4.60;;;0.00;99.90;;;;;;5054300;28;20198;-73
2023/01/21 03:49:56;;;;;;;6.53;4.47;;;-0.10;99.90;;;;;;5054494;28;20181;-72
2023/01/21 03:52:28;;;;;;;6.57;4.40;;;-0.20;99.90;;;;;;5070830;28;20177;-72
2023/01/21 03:54:54;;;;;;;6.37;4.40;;;-0.10;99.90;;;;;;5071346;28;20177;-72
2023/01/21 03:57:22;;;;;;;5.97;4.33;;;-0.20;99.90;;;;;;5051328;28;20275;-73
2023/01/21 03:59:51;;;;;;;5.73;4.20;;;-0.10;99.90;;;;;;5071516;28;20213;-72
2023/01/21 04:02:19;;;;;;;6.73;4.60;;;-0.20;99.90;;;;;;5070759;28;20177;-72
2023/01/21 04:04:45;;;;;;;6.20;4.40;;;-0.20;99.90;;;;;;5071014;28;20169;-72
2023/01/21 04:07:11;;;;;;;6.37;4.30;;;-0.20;99.90;;;;;;5064249;28;20178;-72
2023/01/21 04:09:37;;;;;;;6.40;4.60;;;-0.20;99.90;;;;;;5043685;28;20196;-72
2023/01/21 04:12:05;;;;;;;5.47;4.43;;;-0.20;99.90;;;;;;5054509;28;20197;-72
2023/01/21 04:14:33;;;;;;;6.17;4.83;;;-0.30;99.90;;;;;;5054016;28;20184;-71
2023/01/21 04:17:01;;;;;;;6.93;4.53;;;-0.30;99.90;;;;;;5054081;28;20196;-72
2023/01/21 04:19:26;;;;;;;7.00;4.73;;;-0.30;99.90;;;;;;5054266;28;20201;-72
2023/01/21 04:21:55;;;;;;;7.13;4.87;;;-0.30;99.90;;;;;;5054355;28;20326;-72
2023/01/21 04:24:20;;;;;;;6.50;4.10;;;-0.40;99.90;;;;;;5070839;28;20207;-72
2023/01/21 04:26:46;;;;;;;5.27;3.90;;;-0.40;99.90;;;;;;5070782;28;20264;-72
2023/01/21 04:29:11;;;;;;;6.47;4.50;;;-0.40;99.90;;;;;;5054205;28;20197;-73
2023/01/21 04:31:37;;;;;;;6.43;4.80;;;-0.50;99.90;;;;;;5070833;28;20180;-72
2023/01/21 04:34:03;;;;;;;6.90;4.70;;;-0.50;99.90;;;;;;5070842;28;20173;-72
2023/01/21 04:36:28;;;;;;;6.33;4.93;;;-0.50;99.90;;;;;;5070456;28;20165;-72
2023/01/21 04:38:54;;;;;;;6.50;4.57;;;-0.50;99.90;;;;;;5053996;28;20197;-72
2023/01/21 04:41:22;;;;;;;5.53;4.47;;;-0.60;99.90;;;;;;5053710;28;20216;-72
2023/01/21 04:43:48;;;;;;;6.70;4.80;;;-0.60;99.90;;;;;;5073040;28;20185;-72
2023/01/21 04:46:16;;;;;;;6.43;4.80;;;-0.60;99.90;;;;;;5072646;28;20178;-72
2023/01/21 04:48:41;;;;;;;5.87;3.93;;;-0.70;99.90;;;;;;5058004;28;20173;-72
2023/01/21 04:51:07;;;;;;;5.10;3.87;;;-0.70;99.90;;;;;;5074720;28;20173;-73
2023/01/21 04:53:33;;;;;;;4.93;3.53;;;-0.80;99.90;;;;;;5074079;28;20265;-72
2023/01/21 04:55:58;;;;;;;5.40;3.70;;;-0.80;99.90;;;;;;5057965;28;20186;-72
2023/01/21 04:58:25;;;;;;;6.23;4.30;;;-0.80;99.90;;;;;;5057583;28;20212;-72
2023/01/21 05:00:53;;;;;;;6.37;3.87;;;-0.80;99.90;;;;;;5074244;28;20180;-72
2023/01/21 05:03:18;;;;;;;7.30;4.07;;;-0.80;99.90;;;;;;5073999;28;20201;-72
2023/01/21 05:05:44;;;;;;;5.33;3.60;;;-0.80;99.90;;;;;;5074085;28;20205;-72
2023/01/21 05:08:12;;;;;;;6.37;3.87;;;-0.90;99.90;;;;;;5074065;28;20188;-72
2023/01/21 05:10:40;;;;;;;4.97;3.47;;;-0.90;99.90;;;;;;5074191;28;20196;-73
2023/01/21 05:13:08;;;;;;;4.40;3.50;;;-0.90;99.90;;;;;;5074130;28;20185;-72
2023/01/21 05:15:34;;;;;;;6.07;3.80;;;-1.00;99.90;;;;;;5057249;28;20319;-72
2023/01/21 05:17:59;;;;;;;4.57;3.80;;;-1.00;99.90;;;;;;5056846;28;20464;-72
2023/01/21 05:20:25;;;;;;;6.57;3.93;;;-1.00;99.90;;;;;;5057386;28;20177;-72
2023/01/21 05:22:51;;;;;;;5.63;3.77;;;-1.00;99.90;;;;;;5057008;28;20241;-72
2023/01/21 05:25:16;;;;;;;5.40;4.17;;;-1.00;99.90;;;;;;5056925;28;20177;-72
2023/01/21 05:27:42;;;;;;;4.97;3.83;;;-1.00;99.90;;;;;;5041766;28;20216;-72
2023/01/21 05:30:08;;;;;;;5.50;3.87;;;-1.10;99.90;;;;;;5072350;28;20206;-73
2023/01/21 05:32:37;;;;;;;5.30;3.80;;;-1.10;99.90;;;;;;5039890;28;20182;-72
2023/01/21 05:35:06;;;;;;;5.87;4.07;;;-1.10;99.90;;;;;;5073751;28;20201;-72
2023/01/21 05:37:33;;;;;;;6.07;4.00;;;-1.10;99.90;;;;;;5042824;28;20451;-72
2023/01/21 05:39:59;;;;;;;5.77;4.00;;;-1.20;99.90;;;;;;5073722;28;20178;-72
2023/01/21 05:42:27;;;;;;;5.23;3.87;;;-1.20;99.90;;;;;;5073247;28;20266;-72
2023/01/21 05:44:53;;;;;;;5.90;3.70;;;-1.20;99.90;;;;;;5072908;28;20223;-73
2023/01/21 05:47:20;;;;;;;6.53;4.43;;;-1.20;99.90;;;;;;5055528;28;20198;-72
2023/01/21 05:49:46;;;;;;;6.43;4.07;;;-1.30;99.90;;;;;;5036708;28;20174;-72
2023/01/21 05:52:12;;;;;;;6.30;3.87;;;-1.40;99.90;;;;;;5050752;28;20260;-72
2023/01/21 05:54:39;;;;;;;5.57;4.00;;;-1.40;99.90;;;;;;5052222;28;20182;-72
2023/01/21 05:57:07;;;;;;;4.83;3.73;;;-1.40;99.90;;;;;;5053382;28;20250;-72
2023/01/21 05:59:33;;;;;;;4.80;3.60;;;-1.40;99.90;;;;;;5053032;28;20213;-72
2023/01/21 06:01:58;;;;;;;6.40;4.30;;;-1.50;99.90;;;;;;5065778;28;20193;-73
2023/01/21 06:04:29;;;;;;;8.10;4.50;;;-1.50;99.90;;;;;;5043431;28;20197;-72
2023/01/21 06:06:57;;;;;;;7.07;4.40;;;-1.50;99.90;;;;;;5042024;28;20166;-72
2023/01/21 06:09:23;;;;;;;7.10;4.30;;;-1.50;99.90;;;;;;5073145;28;20231;-72
2023/01/21 06:11:50;;;;;;;6.70;4.37;;;-1.60;99.90;;;;;;5072419;28;20208;-72
2023/01/21 06:14:16;;;;;;;6.53;4.23;;;-1.60;99.90;;;;;;5056288;28;20169;-72
2023/01/21 06:16:44;;;;;;;6.00;3.80;;;-1.60;99.90;;;;;;5056122;28;20173;-72
2023/01/21 06:19:09;;;;;;;6.37;3.90;;;-1.60;99.90;;;;;;5072695;28;20231;-72
2023/01/21 06:21:35;;;;;;;5.13;3.77;;;-1.70;99.90;;;;;;5056298;28;20200;-72
2023/01/21 06:24:01;;;;;;;5.63;3.90;;;-1.70;99.90;;;;;;5055982;28;20197;-72
2023/01/21 06:26:29;;;;;;;6.47;4.17;;;-1.70;99.90;;;;;;5036315;28;20182;-72
2023/01/21 06:28:57;;;;;;;5.10;3.67;;;-1.70;99.90;;;;;;5045999;28;20213;-71
2023/01/21 06:31:23;;;;;;;6.00;3.63;;;-1.70;99.90;;;;;;5067418;28;20178;-71
2023/01/21 06:33:49;;;;;;;5.53;3.80;;;-1.70;99.90;;;;;;5036623;28;20185;-72
2023/01/21 06:36:14;;;;;;;5.33;3.87;;;-1.80;99.90;;;;;;5068497;28;20193;-72
2023/01/21 06:38:40;;;;;;;6.23;4.20;;;-1.80;99.90;;;;;;5072417;28;20224;-72
2023/01/21 06:41:06;;;;;;;5.40;4.00;;;-1.80;99.90;;;;;;5072297;28;20197;-72
2023/01/21 06:43:33;;;;;;;6.33;4.07;;;-1.80;99.90;;;;;;5072249;28;20280;-71
2023/01/21 06:45:59;;;;;;;6.20;4.10;;;-1.90;99.90;;;;;;5055459;28;20181;-72
2023/01/21 06:48:24;;;;;;;7.20;4.40;;;-1.90;99.90;;;;;;5072330;28;20209;-72
2023/01/21 06:50:50;;;;;;;6.07;4.17;;;-1.90;99.90;;;;;;5055563;28;20173;-72
2023/01/21 06:53:16;;;;;;;5.27;3.77;;;-2.00;99.90;;;;;;5055426;28;20293;-72
2023/01/21 06:55:41;;;;;;;6.50;4.33;;;-2.00;99.90;;;;;;5055305;28;20180;-72
2023/01/21 06:58:07;;;;;;;5.60;4.20;;;-2.00;99.90;;;;;;5072075;28;20231;-72
2023/01/21 07:00:33;;;;;;;5.27;3.90;;;-2.00;99.90;;;;;;5055155;28;20192;-72
2023/01/21 07:02:59;;;;;;;6.53;4.17;;;-2.10;99.90;;;;;;5072162;28;20178;-72
2023/01/21 07:05:25;;;;;;;5.53;3.63;;;-2.10;99.90;;;;;;5056314;28;20201;-72
2023/01/21 07:08:00;;;;;;;5.87;4.07;;;-2.10;99.90;;;;;;5051890;28;20182;-71
2023/01/21 07:10:28;;;;;;;7.30;4.87;;;-2.10;99.90;;;;;;5055172;28;20208;-71
2023/01/21 07:12:56;;;;;;;7.47;5.10;;;-2.10;99.90;;;;;;5061889;28;20370;-71
2023/01/21 07:15:24;;;;;;;7.93;5.53;;;-2.20;99.90;;;;;;5054994;28;20177;-71
2023/01/21 07:17:51;;;;;;;7.90;5.43;;;-2.20;99.90;;;;;;5055631;28;20189;-71
2023/01/21 07:20:16;;;;;;;8.67;5.83;;;-2.30;99.90;;;;;;5055006;28;20241;-70
2023/01/21 07:22:42;;;;;;;7.43;5.53;;;-2.30;99.90;;;;;;5048821;28;20219;-71
2023/01/21 07:25:08;;;;;;;7.20;5.67;;;-2.30;99.90;;;;;;5071433;28;20173;-72
2023/01/21 07:27:33;;;;;;;9.17;6.60;;;-2.40;99.90;;;;;;5071184;28;20223;-71
2023/01/21 07:29:59;;;;;;;10.40;6.80;;;-2.40;99.90;;;;;;5054901;28;20197;-71
2023/01/21 07:32:25;;;;;;;10.17;6.93;;;-2.40;99.90;;;;;;5054756;28;20192;-70
2023/01/21 07:34:50;;;;;;;9.87;6.50;;;-2.50;99.90;;;;;;5054580;28;20235;-71
2023/01/21 07:37:16;;;;;;;10.43;6.63;;;-2.50;99.90;;;;;;5057812;28;20248;-71
2023/01/21 07:39:44;;;;;;;9.47;6.07;;;-2.50;99.90;;;;;;5055431;28;20284;-71
2023/01/21 07:42:10;;;;;;;8.37;5.37;;;-2.60;99.90;;;;;;5058014;28;20265;-71
2023/01/21 07:44:35;;;;;;;8.50;5.70;;;-2.60;99.90;;;;;;5071229;28;20220;-71
2023/01/21 07:47:01;;;;;;;8.33;5.40;;;-2.60;99.90;;;;;;5071544;28;20251;-72
2023/01/21 07:49:26;;;;;;;8.67;5.30;;;-2.60;99.90;;;;;;5071058;28;20263;-72
2023/01/21 07:51:56;;;;;;;7.33;5.10;;;-2.60;99.90;;;;;;5070945;28;20184;-71
2023/01/21 07:54:25;;;;;;;7.23;5.23;;;-2.60;99.90;;;;;;5054383;28;20193;-71
2023/01/21 07:56:50;;;;;;;7.23;4.73;;;-2.60;99.90;;;;;;5054239;28;20216;-71
2023/01/21 07:59:16;;;;;;;7.63;5.23;;;-2.70;99.90;;;;;;5055549;28;20236;-71
2023/01/21 08:01:41;;;;;;;6.70;4.80;;;-2.60;99.90;;;;;;5061118;28;20235;-72
2023/01/21 08:04:09;;;;;;;6.97;5.03;;;-2.60;99.90;;;;;;5045686;28;20188;-71
2023/01/21 08:06:40;;;;;;;8.87;5.80;;;-2.70;99.90;;;;;;5046858;28;20358;-71
2023/01/21 08:09:06;;;;;;;8.20;5.50;;;-2.70;99.90;;;;;;5050884;28;20188;-71
2023/01/21 08:11:34;;;;;;;8.27;5.67;;;-2.70;99.90;;;;;;5048893;28;20208;-72
2023/01/21 08:13:59;;;;;;;10.13;6.33;;;-2.70;99.90;;;;;;5054378;28;20196;-71
2023/01/21 08:16:25;;;;;;;10.50;6.83;;;-2.80;99.90;;;;;;5053959;28;20177;-72
2023/01/21 08:18:51;;;;;;;11.20;7.10;;;-2.80;99.90;;;;;;5073562;28;20232;-71
2023/01/21 08:21:19;;;;;;;10.77;6.93;;;-2.80;99.90;;;;;;5074688;28;20189;-71
2023/01/21 08:23:45;;;;;;;10.83;7.33;;;-2.80;99.90;;;;;;5058073;28;20228;-72
2023/01/21 08:26:11;;;;;;;9.70;6.37;;;-2.80;99.90;;;;;;5057770;28;20188;-71
2023/01/21 08:28:41;;;;;;;8.83;6.23;;;-2.80;99.90;;;;;;5074586;28;20251;-71
2023/01/21 08:31:10;;;;;;;7.80;5.50;;;-2.60;99.90;;;;;;5075069;28;20169;-71
2023/01/21 08:33:37;;;;;;;8.33;5.67;;;-2.80;99.90;;;;;;5074738;28;20299;-71
2023/01/21 08:36:05;;;;;;;7.97;5.50;;;-2.80;99.90;;;;;;5074663;28;20224;-70
2023/01/21 08:38:33;;;;;;;9.27;5.80;;;-2.80;99.90;;;;;;5057988;28;20266;-72
2023/01/21 08:41:01;;;;;;;8.00;5.23;;;-2.70;99.90;;;;;;5057834;28;20208;-71
2023/01/21 08:43:27;;;;;;;7.47;5.13;;;-2.70;99.90;;;;;;5074155;28;20189;-71
2023/01/21 08:46:00;;;;;;;9.17;6.10;;;-2.70;99.90;;;;;;5070343;28;20188;-71
2023/01/21 08:48:26;;;;;;;9.47;6.07;;;-2.70;99.90;;;;;;5037381;28;20216;-71
2023/01/21 08:50:52;;;;;;;9.03;6.03;;;-2.70;99.90;;;;;;5043400;28;20188;-70
2023/01/21 08:53:17;;;;;;;8.40;5.63;;;-2.60;99.90;;;;;;5073923;28;20201;-71
2023/01/21 08:55:43;;;;;;;9.17;6.30;;;-2.60;99.90;;;;;;5074320;28;20217;-71
2023/01/21 08:58:08;;;;;;;11.20;6.13;;;-2.60;99.90;;;;;;5074039;28;20300;-71
2023/01/21 09:00:34;;;;;;;9.97;6.50;;;-2.60;99.90;;;;;;5057520;28;20177;-70
2023/01/21 09:03:02;;;;;;;10.83;6.43;;;-2.60;99.90;;;;;;5060984;28;20185;-71
2023/01/21 09:05:28;;;;;;;8.63;6.03;;;-2.50;99.90;;;;;;5057358;28;20193;-70
2023/01/21 09:07:54;;;;;;;9.60;5.97;;;-2.50;99.90;;;;;;5051902;28;20177;-71
2023/01/21 09:13:07;;;;;;;7.97;5.53;;;-2.40;99.90;;;;;;5049540;28;20271;-70
2023/01/21 09:15:42;;;;;;;8.40;5.70;;;-2.30;99.90;;;;;;5068054;28;20196;-71
2023/01/21 09:18:10;;;;;;;9.40;5.70;;;-2.20;99.90;;;;;;5056601;28;20208;-72
2023/01/21 09:20:37;;;;;;;8.93;6.33;;;-2.10;99.90;;;;;;5061382;28;20210;-71
2023/01/21 09:23:27;;;;;;;9.47;6.40;;;-1.80;99.90;;;;;;5066255;28;20177;-72
2023/01/21 09:25:54;;;;;;;9.00;5.97;;;-1.60;99.90;;;;;;5072473;28;20169;-72
2023/01/21 09:28:21;;;;;;;7.90;5.63;;;-1.40;99.90;;;;;;5055948;28;20289;-71
2023/01/21 09:30:49;;;;;;;8.17;5.30;;;-1.20;99.90;;;;;;5049602;28;20182;-71
2023/01/21 09:33:15;;;;;;;7.93;5.70;;;-1.00;99.90;;;;;;5046289;28;20205;-70
2023/01/21 09:35:41;;;;;;;8.17;6.20;;;-0.80;99.90;;;;;;5056560;28;20177;-71
2023/01/21 09:38:10;;;;;;;8.23;6.03;;;-0.60;99.90;;;;;;5053039;28;20237;-71
2023/01/21 09:40:36;;;;;;;7.70;5.63;;;-0.30;99.90;;;;;;5036555;28;20185;-72
2023/01/21 09:43:10;;;;;;;7.83;5.50;;;-0.10;99.90;;;;;;5044124;28;20193;-72
2023/01/21 09:45:36;;;;;;;6.60;5.00;;;0.20;99.90;;;;;;5041961;28;20350;-71
2023/01/21 09:48:03;;;;;;;7.23;5.30;;;0.40;99.90;;;;;;5073007;28;20192;-71
2023/01/21 09:50:32;;;;;;;8.53;6.43;;;0.70;99.90;;;;;;5056085;28;20173;-71
2023/01/21 09:53:17;;;;;;;7.73;6.07;;;0.90;99.90;;;;;;5073094;28;20268;-72
2023/01/21 09:55:48;;;;;;;9.03;6.50;;;1.20;99.90;;;;;;5061159;28;20273;-71
2023/01/21 09:58:29;;;;;;;9.20;6.27;;;1.30;99.90;;;;;;5049916;28;20204;-71
2023/01/21 10:01:12;;;;;;;8.80;6.43;;;1.50;99.90;;;;;;5054526;28;20248;-71
2023/01/21 10:03:52;;;;;;;8.33;6.53;;;1.70;99.90;;;;;;5054833;28;20204;-72
2023/01/21 10:06:26;;;;;;;8.67;6.73;;;1.80;99.90;;;;;;5056166;28;20184;-72
2023/01/21 10:09:10;;;;;;;8.43;6.67;;;2.00;99.90;;;;;;5056228;28;20189;-72
2023/01/21 10:11:51;;;;;;;9.03;6.77;;;2.10;99.90;;;;;;5064994;28;20251;-71
2023/01/21 10:14:44;;;;;;;8.40;6.77;;;2.30;99.90;;;;;;5068224;28;20192;-71
2023/01/21 10:17:28;;;;;;;8.33;6.50;;;2.40;99.90;;;;;;5045643;28;20205;-71
2023/01/21 10:20:05;;;;;;;8.23;6.90;;;2.50;99.90;;;;;;5045054;28;20250;-72
2023/01/21 10:22:30;;;;;;;8.43;7.13;;;2.70;99.90;;;;;;5055416;28;20259;-72
2023/01/21 10:25:23;;;;;;;8.50;6.97;;;2.90;99.90;;;;;;5072343;28;20231;-71
2023/01/21 10:27:52;;;;;;;10.77;7.70;;;2.90;99.90;;;;;;5068545;28;20194;-71
2023/01/21 10:30:30;;;;;;;8.90;7.13;;;3.10;99.90;;;;;;5049754;28;20224;-71
2023/01/21 10:32:56;;;;;;;9.47;7.23;;;3.10;99.90;;;;;;5053880;28;20402;-71
2023/01/21 10:35:35;;;;;;;10.33;7.40;;;3.30;99.90;;;;;;5053132;28;20189;-71
2023/01/21 10:38:13;;;;;;;11.30;8.30;;;3.30;99.90;;;;;;5053472;28;20173;-73
2023/01/21 10:40:54;;;;;;;9.87;7.70;;;3.30;99.90;;;;;;5054953;28;20188;-76
2023/01/21 10:43:26;;;;;;;10.10;8.20;;;3.50;99.90;;;;;;5072339;28;20262;-78
2023/01/21 10:46:21;;;;;;;11.23;8.60;;;3.40;99.90;;;;;;5055113;28;20260;-73
2023/01/21 10:49:25;;;;;;;10.97;8.93;;;3.50;99.90;;;;;;5063472;28;20212;-72
2023/01/21 10:52:06;;;;;;;10.80;7.30;;;3.60;99.90;;;;;;5059535;28;20259;-73
2023/01/21 10:54:47;;;;;;;9.27;7.37;;;3.70;99.90;;;;;;5049627;28;20197;-73
2023/01/21 10:57:19;;;;;;;9.83;8.03;;;3.70;99.90;;;;;;5056918;28;20192;-73
2023/01/21 10:59:48;;;;;;;10.33;7.17;;;3.60;99.90;;;;;;5057629;28;20583;-72
2023/01/21 11:02:28;;;;;;;9.90;7.73;;;3.50;99.90;;;;;;5063518;28;20209;-72
2023/01/21 11:04:57;;;;;;;10.63;7.93;;;3.30;99.90;;;;;;5065069;28;20190;-71
2023/01/21 11:07:26;;;;;;;11.47;8.47;;;3.20;99.90;;;;;;5035204;28;20210;-70
2023/01/21 11:10:40;;;;;;;9.80;7.43;;;3.10;99.90;;;;;;5034909;28;20182;-70
2023/01/21 11:13:58;;;;;;;8.97;6.57;;;3.00;99.90;;;;;;5035445;28;20199;-70
2023/01/21 11:16:42;;;;;;;8.87;6.73;;;2.90;99.90;;;;;;5023987;28;20193;-70
2023/01/21 11:19:13;;;;;;;10.13;7.10;;;2.80;99.90;;;;;;5053218;28;20209;-70
2023/01/21 11:25:50;;;;;;;10.20;6.30;;;2.60;99.90;;;;;;5000709;28;20237;-71
2023/01/21 11:29:10;;;;;;;9.03;6.57;;;2.60;99.90;;;;;;5100350;22;20199;-72
2023/01/21 11:31:40;;;;;;;9.27;6.63;;;2.50;99.90;;;;;;4915721;29;20261;-73
2023/01/21 11:34:14;;;;;;;9.27;6.77;;;2.40;99.90;;;;;;4914697;29;20200;-73
2023/01/21 11:36:56;;;;;;;9.93;6.73;;;2.40;99.90;;;;;;4947914;28;20246;-72
2023/01/21 11:39:29;;;;;;;10.00;7.07;;;2.30;99.90;;;;;;4991607;28;20202;-72
2023/01/21 11:42:07;;;;;;;9.87;6.67;;;2.30;99.90;;;;;;4977349;28;20270;-73
2023/01/21 11:44:35;;;;;;;11.00;7.37;;;2.20;99.90;;;;;;4991082;28;20277;-73
2023/01/21 11:47:21;;;;;;;10.70;7.37;;;2.20;99.90;;;;;;4978193;28;20184;-73
2023/01/21 11:49:49;;;;;;;11.60;7.50;;;2.20;99.90;;;;;;4992799;28;20286;-72
2023/01/21 11:52:18;;;;;;;11.37;7.47;;;2.10;99.90;;;;;;4976995;28;20182;-72
2023/01/21 11:54:44;;;;;;;13.13;8.30;;;2.20;99.90;;;;;;4994424;28;20183;-72
2023/01/21 11:57:31;;;;;;;11.17;7.73;;;2.10;99.90;;;;;;4994187;28;20217;-72
2023/01/21 12:00:15;;;;;;;11.33;8.07;;;2.10;99.90;;;;;;4975297;28;20210;-72
2023/01/21 12:02:45;;;;;;;13.50;9.00;;;2.10;99.90;;;;;;4987777;28;20202;-72
2023/01/21 12:05:40;;;;;;;9.90;7.13;;;2.10;99.90;;;;;;4981354;28;20190;-72
2023/01/21 12:08:13;;;;;;;11.43;7.67;;;2.10;99.90;;;;;;4966794;28;20253;-72
2023/01/21 12:10:44;;;;;;;10.70;7.83;;;2.10;99.90;;;;;;4993977;28;20236;-72
2023/01/21 12:13:20;;;;;;;12.10;8.00;;;2.10;99.90;;;;;;4978097;28;20191;-72
2023/01/21 12:16:22;;;;;;;11.40;8.20;;;2.10;99.90;;;;;;4968048;28;20218;-72
2023/01/21 12:19:16;;;;;;;11.83;8.23;;;2.10;99.90;;;;;;4975248;28;20202;-73
2023/01/21 12:22:13;;;;;;;11.27;8.37;;;2.20;99.90;;;;;;4988742;28;20233;-73
2023/01/21 12:25:15;;;;;;;11.87;7.77;;;2.20;99.90;;;;;;4986991;28;20198;-73
2023/01/21 12:27:41;;;;;;;11.07;7.13;;;2.20;99.90;;;;;;4958856;28;20223;-73
2023/01/21 12:30:36;;;;;;;10.83;7.50;;;2.20;99.90;;;;;;4987129;28;20204;-71
2023/01/21 12:33:32;;;;;;;9.27;6.73;;;2.20;99.90;;;;;;4969296;28;20187;-71
2023/01/21 12:36:10;;;;;;;10.70;8.07;;;2.30;99.90;;;;;;4986624;28;20175;-72
2023/01/21 12:38:56;;;;;;;9.83;7.33;;;2.30;99.90;;;;;;4977043;28;20203;-72
2023/01/21 12:41:29;;;;;;;11.70;7.73;;;2.40;99.90;;;;;;4976386;28;20212;-72
2023/01/21 12:44:05;;;;;;;11.47;7.50;;;2.40;99.90;;;;;;4996129;28;20223;-72
2023/01/21 12:46:43;;;;;;;11.00;8.07;;;2.50;99.90;;;;;;4981819;28;20199;-72
2023/01/21 12:49:47;;;;;;;10.87;8.37;;;2.50;99.90;;;;;;4977704;28;20190;-73
2023/01/21 12:52:25;;;;;;;10.33;7.00;;;2.30;99.90;;;;;;4961676;28;20231;-71
2023/01/21 12:55:25;;;;;;;10.43;7.40;;;2.50;99.90;;;;;;4994202;28;20269;-72
2023/01/21 12:58:06;;;;;;;11.37;7.53;;;2.60;99.90;;;;;;4993952;28;20211;-73
2023/01/21 13:00:38;;;;;;;10.30;7.40;;;2.60;99.90;;;;;;4977856;28;20415;-71
2023/01/21 13:03:28;;;;;;;11.80;8.07;;;2.60;99.90;;;;;;4978105;28;20179;-71
2023/01/21 13:06:08;;;;;;;11.13;7.40;;;2.60;99.90;;;;;;4980977;28;20635;-71
2023/01/21 13:08:35;;;;;;;10.37;7.57;;;2.60;99.90;;;;;;4980749;28;20190;-71
2023/01/21 13:11:32;;;;;;;10.00;7.20;;;2.60;99.90;;;;;;4978446;28;20183;-72
2023/01/21 13:14:06;;;;;;;9.37;6.60;;;2.70;99.90;;;;;;4990905;28;20200;-71
2023/01/21 13:16:45;;;;;;;9.93;7.30;;;2.70;99.90;;;;;;4981057;28;20190;-71
2023/01/21 13:19:14;;;;;;;10.20;6.73;;;2.70;99.90;;;;;;4990861;28;20391;-71
2023/01/21 13:21:42;;;;;;;9.07;7.10;;;2.70;99.90;;;;;;4977728;28;20426;-71
2023/01/21 13:24:33;;;;;;;9.23;6.97;;;2.80;99.90;;;;;;4977963;28;20172;-71